Newport-on-Tay, United Kingdom
Current Conditions -  °F | °C
As of 12:20 PM on Monday 24 Nov 2014 (Local Time) from EGPN Reporting Station
Clear Clear  
Wind Chill: 42°   Ceiling: Unl
Heat Index: 45°   Visibility: 6mi
Dew Point: 43°   Wind: 5mph
Humidity: 93%   Direction: 300°WNW
Pressure: 30.18"   Gusts: NA
Location:  56.44°N, 2.94°W
Report Text: EGPN 241220Z 30004KT CAVOK 07/06 Q1022
Loading
Personal Weather Stations






























Interactive Weather Map New forecast layout! Learn more

10-Day Weather Forecast

Advertisements
Track Severe Weather on mobile